Time;durP1;ratioP1;P1;durP2;ratioP2;P2;SDS_P1;SDS_P2;PMS_P1;PMS_P2;Temp;Humidity;BMP_temperature;BMP_pressure;BME280_temperature;BME280_humidity;BME280_pressure;Samples;Min_cycle;Max_cycle;Signal;HPM_P1;HPM_P2
2021/05/31 00:01:07;;;;;;;10.30;5.95;;;14.40;99.90;;;14.19;88.59;101590.13;4120326;28;20034;-66
2021/05/31 00:03:08;;;;;;;6.55;5.72;;;14.40;99.90;;;14.17;88.53;101581.50;4119853;28;20106;-66
2021/05/31 00:05:10;;;;;;;8.23;5.38;;;14.40;99.90;;;14.28;88.48;101583.84;4119655;28;20043;-66
2021/05/31 00:07:15;;;;;;;6.78;5.75;;;14.40;99.90;;;14.16;88.64;101585.13;4120048;28;20027;-66
2021/05/31 00:09:16;;;;;;;8.68;6.03;;;14.30;99.90;;;14.19;88.47;101579.50;4113557;28;20024;-66
2021/05/31 00:11:20;;;;;;;8.57;5.75;;;14.30;99.90;;;14.13;88.42;101574.84;4115509;28;20494;-66
2021/05/31 00:13:21;;;;;;;7.75;5.50;;;14.30;99.90;;;14.11;88.80;101581.28;4119603;28;20027;-66
2021/05/31 00:15:22;;;;;;;7.40;5.20;;;14.30;99.90;;;14.07;88.59;101583.41;4119688;28;20487;-66
2021/05/31 00:17:26;;;;;;;7.75;5.63;;;14.20;99.90;;;14.05;88.73;101577.47;4118624;28;20533;-66
2021/05/31 00:19:27;;;;;;;6.43;5.68;;;14.20;99.90;;;14.02;89.27;101582.25;4119738;28;20395;-66
2021/05/31 00:21:28;;;;;;;6.43;5.78;;;14.20;99.90;;;13.99;89.59;101572.78;4119561;28;20455;-66
2021/05/31 00:23:29;;;;;;;6.55;5.60;;;14.20;99.90;;;14.07;89.31;101575.47;4119435;28;20031;-66
2021/05/31 00:25:30;;;;;;;8.15;5.47;;;14.20;99.90;;;14.13;89.21;101580.13;4119660;28;20026;-66
2021/05/31 00:27:31;;;;;;;7.07;5.72;;;14.20;99.90;;;14.09;89.30;101575.31;4119661;28;20086;-66
2021/05/31 00:29:32;;;;;;;6.95;5.45;;;14.20;99.90;;;13.98;89.62;101560.50;4119533;28;20085;-66
2021/05/31 00:31:34;;;;;;;7.68;5.80;;;14.20;99.90;;;14.08;88.86;101571.84;4118521;28;20034;-66
2021/05/31 00:33:34;;;;;;;7.95;6.60;;;14.20;99.90;;;14.09;88.42;101564.72;4119665;28;20035;-66
2021/05/31 00:35:36;;;;;;;10.52;6.25;;;14.20;99.90;;;14.05;88.75;101561.53;4119675;28;20041;-66
2021/05/31 00:37:37;;;;;;;9.02;6.70;;;14.10;99.90;;;14.17;88.71;101564.75;4119477;28;20031;-66
2021/05/31 00:39:38;;;;;;;7.60;6.75;;;14.20;99.90;;;13.97;88.96;101569.47;4119369;28;20035;-66
2021/05/31 00:41:44;;;;;;;9.55;6.72;;;14.20;99.90;;;13.98;89.30;101570.31;4122273;28;20107;-67
2021/05/31 00:43:45;;;;;;;7.43;6.30;;;14.10;99.90;;;13.97;89.87;101563.31;4122865;28;20031;-66
2021/05/31 00:45:48;;;;;;;6.68;5.40;;;14.10;99.90;;;13.92;89.79;101562.97;4122735;28;20037;-66
2021/05/31 00:47:50;;;;;;;7.85;6.53;;;14.10;99.90;;;13.93;89.47;101561.97;4122737;28;20479;-66
2021/05/31 00:49:51;;;;;;;9.02;6.57;;;14.00;99.90;;;13.86;90.10;101559.09;4137538;28;20030;-66
2021/05/31 00:51:52;;;;;;;10.55;7.55;;;14.00;99.90;;;13.86;89.89;101556.44;4122574;28;20107;-66
2021/05/31 00:53:54;;;;;;;9.85;7.13;;;14.00;99.90;;;13.80;90.27;101552.59;4122284;28;20042;-66
2021/05/31 00:55:55;;;;;;;9.60;7.00;;;14.00;99.90;;;13.84;90.37;101553.97;4122558;28;20045;-66
2021/05/31 00:57:57;;;;;;;11.85;7.85;;;14.00;99.90;;;13.92;90.21;101550.50;4122475;28;20097;-66
2021/05/31 00:59:58;;;;;;;9.30;7.20;;;14.00;99.90;;;13.83;89.99;101543.50;4121273;28;20626;-66
2021/05/31 01:01:59;;;;;;;9.35;7.65;;;14.00;99.90;;;13.90;90.25;101547.19;4122160;28;20026;-66
2021/05/31 01:04:01;;;;;;;9.95;7.57;;;14.00;99.90;;;13.89;90.16;101542.88;4122332;28;20045;-66
2021/05/31 01:06:06;;;;;;;9.20;7.55;;;14.00;99.90;;;13.86;90.03;101543.19;4122411;28;20118;-66
2021/05/31 01:08:13;;;;;;;10.38;7.65;;;14.00;99.90;;;13.77;90.84;101537.00;4122386;28;20553;-66
2021/05/31 01:10:26;;;;;;;11.15;7.45;;;14.00;99.90;;;13.81;90.58;101545.50;4120924;28;20494;-66
2021/05/31 01:13:03;;;;;;;9.02;7.15;;;13.90;99.90;;;13.75;90.78;101543.47;4122219;28;20031;-66
2021/05/31 01:15:15;;;;;;;13.70;8.93;;;13.90;99.90;;;13.83;90.41;101540.84;4118377;28;20043;-66
2021/05/31 01:17:41;;;;;;;9.15;7.38;;;13.90;99.90;;;13.78;90.52;101540.50;4122140;28;20066;-66
2021/05/31 01:19:51;;;;;;;10.07;7.43;;;13.90;99.90;;;13.72;91.24;101538.47;4120813;28;20027;-66
2021/05/31 01:22:10;;;;;;;9.52;7.85;;;13.80;99.90;;;13.69;90.86;101513.13;4122296;28;20054;-66
2021/05/31 01:24:36;;;;;;;9.32;8.02;;;13.90;99.90;;;13.76;91.47;101531.88;4109606;28;20027;-66
2021/05/31 01:26:53;;;;;;;10.95;8.68;;;13.80;99.90;;;13.83;90.49;101531.09;4091111;29;20107;-66
2021/05/31 01:29:06;;;;;;;11.15;8.55;;;13.90;99.90;;;13.84;90.27;101537.22;4104912;28;20038;-66
2021/05/31 01:31:08;;;;;;;12.05;9.70;;;13.90;99.90;;;13.72;90.32;101533.16;4105764;28;20042;-66
2021/05/31 01:33:16;;;;;;;12.45;8.38;;;13.80;99.90;;;13.66;91.11;101523.19;4104946;28;20034;-66
2021/05/31 01:35:38;;;;;;;10.38;8.40;;;13.80;99.90;;;13.61;90.80;101517.53;4104716;28;20031;-67
2021/05/31 01:37:42;;;;;;;11.63;8.65;;;13.80;99.90;;;13.71;91.59;101520.91;4105869;28;20026;-66
2021/05/31 01:39:49;;;;;;;12.23;8.57;;;13.80;99.90;;;13.71;91.59;101516.44;4105572;28;20508;-66
2021/05/31 01:41:51;;;;;;;13.15;9.80;;;13.80;99.90;;;13.65;91.52;101521.56;4104631;28;20031;-67
2021/05/31 01:43:52;;;;;;;13.73;9.50;;;13.80;99.90;;;13.72;91.49;101502.19;4104388;28;20079;-66
2021/05/31 01:45:53;;;;;;;13.50;10.02;;;13.80;99.90;;;13.85;91.11;101515.88;4104613;28;20059;-66
2021/05/31 01:47:54;;;;;;;14.32;9.80;;;13.80;99.90;;;13.77;91.29;101517.63;4104627;28;20031;-67
2021/05/31 01:49:56;;;;;;;13.13;10.10;;;13.80;99.90;;;13.69;91.64;101512.28;4105752;28;20030;-66
2021/05/31 01:51:58;;;;;;;12.23;9.60;;;13.80;99.90;;;13.73;91.38;101508.34;4104731;28;20035;-67
2021/05/31 01:54:00;;;;;;;13.68;9.60;;;13.80;99.90;;;13.69;91.89;101501.66;4105330;28;20039;-67
2021/05/31 01:56:01;;;;;;;14.55;10.77;;;13.80;99.90;;;13.81;91.17;101495.94;4104348;28;20031;-66
2021/05/31 01:58:03;;;;;;;17.02;9.43;;;13.90;99.90;;;13.76;91.83;101506.19;4105700;28;20027;-66
2021/05/31 02:00:08;;;;;;;11.55;9.57;;;13.80;99.90;;;13.73;92.27;101498.56;4104368;28;20062;-67
2021/05/31 02:02:09;;;;;;;12.93;9.98;;;13.80;99.90;;;13.71;92.58;101497.88;4108624;28;20049;-66
2021/05/31 02:04:10;;;;;;;12.00;9.50;;;13.80;99.90;;;13.73;92.39;101500.38;4121293;28;20067;-66
2021/05/31 02:06:11;;;;;;;15.07;11.18;;;13.80;99.90;;;13.70;91.61;101503.34;4121600;28;20043;-66
2021/05/31 02:08:12;;;;;;;13.93;9.65;;;13.80;99.90;;;13.73;91.56;101497.72;4121131;28;20031;-66
2021/05/31 02:10:14;;;;;;;14.43;10.07;;;13.80;99.90;;;13.68;91.50;101492.03;4121450;28;20130;-66
2021/05/31 02:12:21;;;;;;;13.05;9.68;;;13.80;99.90;;;13.66;91.86;101499.34;4120372;28;20413;-66
2021/05/31 02:14:44;;;;;;;12.00;10.70;;;13.80;99.90;;;13.56;91.90;101498.63;4120181;28;20045;-66
2021/05/31 02:17:21;;;;;;;15.40;10.52;;;13.70;99.90;;;13.44;92.41;101473.38;4119926;28;20106;-66
2021/05/31 02:19:23;;;;;;;10.95;9.45;;;13.70;99.90;;;13.52;92.79;101494.63;4093313;28;20126;-66
2021/05/31 02:21:26;;;;;;;13.13;9.82;;;13.70;99.90;;;13.42;93.25;101484.13;4121144;28;20495;-66
2021/05/31 02:23:28;;;;;;;12.13;10.05;;;13.60;99.90;;;13.39;93.24;101483.59;4115050;28;20039;-66
2021/05/31 02:25:31;;;;;;;13.43;10.70;;;13.60;99.90;;;13.42;93.39;101488.59;4104027;28;20031;-66
2021/05/31 02:27:32;;;;;;;14.45;10.93;;;13.60;99.90;;;13.29;93.25;101479.22;4103945;28;20023;-66
2021/05/31 02:29:33;;;;;;;12.13;10.10;;;13.50;99.90;;;13.24;94.04;101492.13;4103782;28;20117;-66
2021/05/31 02:31:34;;;;;;;15.30;11.07;;;13.50;99.90;;;13.26;93.74;101479.53;4105301;28;20037;-66
2021/05/31 02:33:38;;;;;;;13.27;10.15;;;13.50;99.90;;;13.26;93.79;101481.38;4105152;28;20023;-66
2021/05/31 02:35:39;;;;;;;15.55;10.57;;;13.40;99.90;;;13.16;93.71;101481.47;4104895;28;20062;-66
2021/05/31 02:37:40;;;;;;;13.30;9.70;;;13.40;99.90;;;13.21;94.00;101475.69;4104810;28;20031;-66
2021/05/31 02:39:41;;;;;;;13.85;9.48;;;13.40;99.90;;;13.16;94.07;101484.13;4104729;28;20027;-66
2021/05/31 02:41:42;;;;;;;12.32;9.00;;;13.30;99.90;;;13.18;93.76;101478.66;4104995;28;20117;-66
2021/05/31 02:43:43;;;;;;;14.95;9.82;;;13.30;99.90;;;13.09;94.03;101477.78;4104969;28;20047;-66
2021/05/31 02:45:44;;;;;;;14.23;9.80;;;13.30;99.90;;;13.12;93.79;101484.56;4104703;28;20039;-66
2021/05/31 02:47:45;;;;;;;14.00;10.50;;;13.30;99.90;;;13.15;93.53;101478.97;4104890;28;20499;-66
2021/05/31 02:49:46;;;;;;;14.27;10.52;;;13.30;99.90;;;13.15;93.54;101477.16;4104819;28;20407;-66
2021/05/31 02:51:47;;;;;;;13.48;10.13;;;13.30;99.90;;;13.10;93.73;101476.78;4104737;28;20035;-66
2021/05/31 02:53:48;;;;;;;13.07;10.35;;;13.30;99.90;;;13.03;94.12;101480.16;4104336;28;20031;-66
2021/05/31 02:59:44;;;;;;;12.73;9.90;;;13.20;99.90;;;13.24;92.87;101475.38;4109615;28;20081;-66
2021/05/31 03:01:45;;;;;;;13.55;10.80;;;13.30;99.90;;;13.12;93.23;101466.88;4120549;28;20517;-66
2021/05/31 03:03:46;;;;;;;14.93;10.55;;;13.30;99.90;;;13.02;94.05;101459.97;4120509;28;20039;-66
2021/05/31 03:05:47;;;;;;;15.10;11.75;;;13.20;99.90;;;12.96;94.34;101460.59;4120369;28;20450;-66
2021/05/31 03:07:48;;;;;;;14.15;11.18;;;13.20;99.90;;;12.88;94.70;101461.34;4120531;28;20030;-66
2021/05/31 03:09:49;;;;;;;15.35;11.50;;;13.10;99.90;;;13.01;94.06;101464.44;4120126;28;20034;-66
2021/05/31 03:11:50;;;;;;;15.20;11.77;;;13.10;99.90;;;12.95;94.36;101457.09;4107711;28;20494;-66
2021/05/31 03:13:51;;;;;;;15.23;11.23;;;13.10;99.90;;;12.93;94.83;101459.06;4120413;28;20053;-66
2021/05/31 03:15:53;;;;;;;16.20;12.43;;;13.10;99.90;;;12.97;94.71;101455.13;4120331;28;20477;-66
2021/05/31 03:17:55;;;;;;;18.17;12.60;;;13.10;99.90;;;12.98;94.61;101445.38;4120426;28;20441;-66
2021/05/31 03:19:56;;;;;;;16.67;12.38;;;13.10;99.90;;;13.04;95.07;101463.28;4120410;28;20066;-66
2021/05/31 03:21:57;;;;;;;17.05;13.15;;;13.10;99.90;;;12.86;94.67;101444.78;4119204;28;20091;-66
2021/05/31 03:23:58;;;;;;;14.32;11.85;;;13.10;99.90;;;12.93;94.88;101456.41;4120326;28;20030;-66
2021/05/31 03:25:59;;;;;;;18.70;11.77;;;13.10;99.90;;;12.91;94.80;101453.09;4120196;28;20031;-66
2021/05/31 03:28:01;;;;;;;18.20;12.05;;;13.10;99.90;;;12.88;94.89;101447.28;4120267;28;20039;-66
2021/05/31 03:30:09;;;;;;;16.60;12.13;;;13.10;99.90;;;12.85;94.99;101439.63;4120264;28;20106;-66
2021/05/31 03:32:10;;;;;;;14.63;11.32;;;13.00;99.90;;;12.82;94.81;101443.44;4120025;28;20039;-67
2021/05/31 03:34:11;;;;;;;17.95;13.23;;;13.00;99.90;;;12.85;95.23;101437.81;4120108;28;20430;-66
2021/05/31 03:36:12;;;;;;;15.18;11.77;;;13.00;99.90;;;12.93;94.36;101443.16;4120107;28;20034;-66
2021/05/31 03:38:13;;;;;;;18.63;11.70;;;13.00;99.90;;;12.95;93.61;101441.22;4119916;28;20030;-67
2021/05/31 03:40:17;;;;;;;17.13;11.48;;;13.10;99.90;;;12.84;94.58;101446.78;4120057;28;20461;-66
2021/05/31 03:42:18;;;;;;;16.50;12.35;;;13.00;99.90;;;12.83;94.90;101445.09;4118828;28;20027;-67
2021/05/31 03:44:19;;;;;;;16.13;11.07;;;13.00;99.90;;;12.80;95.32;101439.28;4120135;28;20037;-66
2021/05/31 03:46:20;;;;;;;16.02;11.95;;;13.00;99.90;;;12.78;95.31;101444.72;4120130;28;20134;-66
2021/05/31 03:51:37;;;;;;;17.20;12.43;;;12.90;99.90;;;12.72;94.55;101450.63;4120117;28;20516;-66
2021/05/31 03:53:40;;;;;;;15.50;11.18;;;12.90;99.90;;;12.69;94.86;101446.44;4119650;28;20034;-66
2021/05/31 03:55:41;;;;;;;15.63;10.85;;;12.90;99.90;;;12.64;95.21;101447.91;4103996;28;20031;-66
2021/05/31 03:57:42;;;;;;;17.10;11.52;;;12.80;99.90;;;12.65;95.11;101452.22;4104161;28;20051;-66
2021/05/31 03:59:43;;;;;;;14.38;11.32;;;12.80;99.90;;;12.56;95.32;101451.31;4103989;28;20078;-66
2021/05/31 04:01:47;;;;;;;19.13;12.85;;;12.80;99.90;;;12.54;95.16;101461.22;4103772;28;20438;-66
2021/05/31 04:03:49;;;;;;;;;;;12.80;99.90;;;12.44;94.90;101449.03;4120250;28;20030;-66
2021/05/31 04:06:02;;;;;;;13.88;11.63;;;12.70;99.90;;;12.44;95.43;101454.34;4119775;28;19918;-67
2021/05/31 04:12:42;;;;;;;17.45;11.90;;;12.70;99.90;;;12.47;95.32;101436.34;4119860;28;20034;-66
2021/05/31 04:14:43;;;;;;;15.20;11.50;;;12.70;99.90;;;12.48;95.93;101451.25;4119746;28;20027;-66
2021/05/31 04:16:50;;;;;;;18.50;11.40;;;12.70;99.90;;;12.53;95.86;101451.63;4122406;28;20042;-67
2021/05/31 04:18:51;;;;;;;16.55;11.85;;;12.70;99.90;;;12.50;95.86;101443.97;4123080;28;20026;-66
2021/05/31 04:20:52;;;;;;;15.18;10.75;;;12.70;99.90;;;12.64;95.03;101446.09;4123079;28;20467;-66
2021/05/31 04:22:53;;;;;;;13.85;10.70;;;12.80;99.90;;;12.65;94.32;101449.56;4122981;28;20042;-66
2021/05/31 04:24:54;;;;;;;16.13;11.30;;;12.70;99.90;;;12.59;94.61;101447.53;4122865;28;20037;-66
2021/05/31 04:26:54;;;;;;;15.43;11.32;;;12.70;99.90;;;12.47;94.95;101439.00;4122989;28;20042;-66
2021/05/31 04:28:55;;;;;;;22.77;12.30;;;12.70;99.90;;;12.65;93.85;101441.63;4122954;28;20026;-66
2021/05/31 04:30:56;;;;;;;18.27;12.15;;;12.70;99.90;;;12.54;93.99;101439.22;4123047;28;20061;-66
2021/05/31 04:32:57;;;;;;;17.02;11.85;;;12.70;99.90;;;12.52;95.14;101442.00;4121840;28;20026;-66
2021/05/31 04:34:58;;;;;;;15.13;11.90;;;12.70;99.90;;;12.51;95.27;101437.72;4122935;28;20053;-66
2021/05/31 04:36:59;;;;;;;15.38;11.73;;;12.70;99.90;;;12.57;95.24;101438.94;4122766;28;20113;-66
2021/05/31 04:39:04;;;;;;;14.40;10.82;;;12.70;99.90;;;12.61;94.02;101433.16;4122452;28;20093;-66
2021/05/31 04:41:05;;;;;;;17.60;12.10;;;12.70;99.90;;;12.62;94.33;101439.28;4122924;28;20109;-66
2021/05/31 04:43:06;;;;;;;13.48;10.80;;;12.70;99.90;;;12.63;94.25;101433.03;4122962;28;20030;-66
2021/05/31 04:45:08;;;;;;;18.00;11.73;;;12.80;99.90;;;12.65;94.30;101438.97;4122695;28;20030;-66
2021/05/31 04:47:10;;;;;;;15.25;12.07;;;12.80;99.90;;;12.62;94.93;101439.28;4122547;28;20027;-66
2021/05/31 04:49:11;;;;;;;15.80;12.18;;;12.80;99.90;;;12.57;95.10;101441.56;4121568;28;20031;-66
2021/05/31 04:51:11;;;;;;;16.13;11.85;;;12.90;99.90;;;12.66;94.73;101446.75;4122796;28;20125;-66
2021/05/31 04:53:13;;;;;;;13.30;11.48;;;12.80;99.90;;;12.66;95.03;101448.59;4121137;28;20090;-66
2021/05/31 04:55:16;;;;;;;16.02;11.38;;;12.80;99.90;;;12.64;94.99;101443.44;4122415;28;20042;-66
2021/05/31 04:57:16;;;;;;;17.17;11.95;;;12.90;99.90;;;12.63;95.21;101440.97;4122513;28;20487;-66
2021/05/31 04:59:17;;;;;;;14.35;12.15;;;12.80;99.90;;;12.68;95.26;101436.88;4122550;28;20034;-66
2021/05/31 05:01:20;;;;;;;16.27;11.88;;;12.80;99.90;;;12.69;95.20;101441.16;4122577;28;20053;-66
2021/05/31 05:03:22;;;;;;;15.70;11.70;;;12.90;99.90;;;12.83;94.28;101445.09;4122184;28;20027;-66
2021/05/31 05:05:23;;;;;;;16.08;11.60;;;13.00;99.90;;;12.84;94.01;101448.59;4122234;28;20117;-66
2021/05/31 05:07:24;;;;;;;15.38;11.00;;;13.00;99.90;;;12.82;94.27;101451.38;4122562;28;20027;-66
2021/05/31 05:09:25;;;;;;;15.38;10.65;;;13.00;99.90;;;12.72;94.55;101445.34;4121994;28;20037;-66
2021/05/31 05:11:26;;;;;;;14.70;11.07;;;13.00;99.90;;;12.84;93.81;101444.13;4121197;28;20023;-66
2021/05/31 05:13:27;;;;;;;13.20;10.70;;;13.00;99.90;;;12.88;94.15;101448.09;4122527;28;20054;-66
2021/05/31 05:15:29;;;;;;;13.88;10.65;;;13.00;99.90;;;12.85;94.50;101447.56;4122184;28;20034;-66
2021/05/31 05:17:30;;;;;;;12.15;9.57;;;13.00;99.90;;;12.83;94.95;101455.69;4122238;28;20038;-66
2021/05/31 05:19:31;;;;;;;13.55;10.75;;;13.10;99.90;;;12.90;94.39;101450.63;4122159;28;20022;-66
2021/05/31 05:21:32;;;;;;;16.17;12.68;;;13.00;99.90;;;13.11;93.17;101449.28;4122168;28;20461;-66
2021/05/31 05:23:33;;;;;;;13.27;9.82;;;13.20;99.90;;;13.12;93.57;101450.97;4121990;28;20027;-66
2021/05/31 05:25:34;;;;;;;15.23;10.75;;;13.30;99.90;;;13.18;93.36;101452.16;4122132;28;20030;-66
2021/05/31 05:27:36;;;;;;;13.45;9.27;;;13.30;99.90;;;13.10;94.17;101452.13;4120668;28;20574;-66
2021/05/31 05:29:37;;;;;;;15.23;11.10;;;13.30;99.90;;;13.26;93.07;101445.09;4122026;28;20085;-66
2021/05/31 05:31:39;;;;;;;15.80;11.68;;;13.40;99.90;;;13.41;91.91;101431.28;4122066;28;20027;-66
2021/05/31 05:33:42;;;;;;;15.70;10.82;;;13.60;99.90;;;13.50;91.96;101438.28;4121995;28;20023;-66
2021/05/31 05:35:49;;;;;;;14.07;11.00;;;13.70;99.90;;;13.62;90.51;101432.53;4122017;28;20035;-66
2021/05/31 05:48:18;;;;;;;13.50;10.73;;;14.10;99.90;;;13.92;89.32;101439.13;4105715;28;20182;-67
2021/05/31 05:50:21;;;;;;;16.95;11.00;;;14.10;99.90;;;14.02;88.58;101426.56;4105656;28;20031;-66
2021/05/31 05:52:22;;;;;;;14.52;10.10;;;14.20;99.90;;;14.07;89.09;101429.53;4105633;28;20107;-66
2021/05/31 05:54:23;;;;;;;13.10;10.45;;;14.30;99.90;;;14.13;87.94;101428.06;4105404;28;20034;-66
2021/05/31 05:56:24;;;;;;;13.80;10.63;;;14.40;99.90;;;14.22;87.36;101425.28;4105506;28;20431;-66
2021/05/31 05:58:29;;;;;;;14.07;10.85;;;14.50;99.90;;;14.27;87.12;101428.28;4105455;28;20031;-66
2021/05/31 06:00:31;;;;;;;13.57;10.48;;;14.50;99.90;;;14.33;86.99;101432.97;4109512;28;20054;-66
2021/05/31 06:02:32;;;;;;;13.00;10.18;;;14.60;99.90;;;14.28;86.64;101437.91;4121585;28;20038;-66
2021/05/31 06:04:34;;;;;;;15.10;10.60;;;14.70;99.90;;;14.28;87.35;101427.28;4121224;28;20043;-67
2021/05/31 06:06:35;;;;;;;12.02;9.90;;;14.70;99.90;;;14.33;87.35;101426.84;4121463;28;20035;-67
2021/05/31 06:08:36;;;;;;;13.07;9.45;;;14.70;99.90;;;14.44;87.04;101434.47;4121199;28;20093;-67
2021/05/31 06:10:37;;;;;;;12.00;10.38;;;14.80;99.90;;;14.54;86.41;101426.34;4121354;28;20034;-67
2021/05/31 06:12:38;;;;;;;13.32;10.38;;;14.80;99.90;;;14.66;86.26;101433.84;4107570;28;20042;-67
2021/05/31 06:14:39;;;;;;;11.77;10.10;;;14.90;99.90;;;14.55;86.33;101431.50;4116549;28;20410;-67
2021/05/31 06:16:40;;;;;;;14.13;10.15;;;14.90;99.90;;;14.66;84.56;101433.00;4121150;28;20042;-67
2021/05/31 06:18:41;;;;;;;15.35;10.00;;;14.90;99.90;;;14.75;84.53;101432.84;4119994;28;20031;-67
2021/05/31 06:20:43;;;;;;;10.93;8.82;;;15.00;99.90;;;14.84;83.76;101423.03;4121175;28;20467;-67
2021/05/31 06:22:43;;;;;;;11.52;8.13;;;15.20;99.90;;;14.83;84.33;101426.69;4120802;28;20027;-67
2021/05/31 06:24:46;;;;;;;12.90;9.38;;;15.10;99.90;;;14.84;84.29;101415.06;4120896;28;20364;-67
2021/05/31 06:26:47;;;;;;;13.63;8.95;;;15.20;99.90;;;14.99;82.92;101424.03;4120922;28;20030;-67
2021/05/31 06:28:48;;;;;;;12.98;9.13;;;15.30;99.90;;;15.02;83.40;101414.88;4121017;28;20117;-67
2021/05/31 06:30:49;;;;;;;9.23;8.13;;;15.40;99.90;;;15.15;82.33;101426.66;4121109;28;20062;-67
2021/05/31 06:32:50;;;;;;;13.48;8.73;;;15.40;99.90;;;15.13;82.04;101425.16;4120817;28;20027;-67
2021/05/31 06:34:51;;;;;;;12.63;8.77;;;15.50;99.90;;;15.22;82.09;101424.16;4121081;28;20033;-66
2021/05/31 06:36:55;;;;;;;10.27;8.05;;;15.60;99.90;;;15.26;82.91;101430.78;4105429;28;20042;-66
2021/05/31 06:38:56;;;;;;;10.57;8.40;;;15.60;99.90;;;15.24;83.21;101427.47;4112935;28;20027;-66
2021/05/31 06:40:57;;;;;;;8.95;7.88;;;15.60;99.90;;;15.42;80.86;101426.25;4118965;28;20063;-66
2021/05/31 06:42:58;;;;;;;8.65;6.53;;;15.70;99.90;;;15.43;81.15;101425.25;4119952;28;20037;-65
2021/05/31 06:44:59;;;;;;;9.27;7.15;;;15.80;99.90;;;15.53;79.97;101426.94;4118433;28;20525;-65
2021/05/31 06:47:00;;;;;;;9.18;6.93;;;15.80;99.90;;;15.53;79.59;101427.72;4118385;28;20043;-66
2021/05/31 06:49:01;;;;;;;7.05;6.35;;;15.90;99.90;;;15.59;79.00;101421.72;4105190;28;20023;-66
2021/05/31 06:51:03;;;;;;;10.35;6.07;;;16.00;99.90;;;15.54;79.91;101417.94;4120348;28;20678;-65
2021/05/31 06:53:04;;;;;;;9.27;6.63;;;16.00;99.90;;;15.66;78.90;101421.88;4119770;28;20026;-65
2021/05/31 06:55:07;;;;;;;8.40;6.75;;;16.00;99.90;;;15.70;77.69;101420.53;4120151;28;20497;-65
2021/05/31 06:57:08;;;;;;;8.55;6.20;;;16.10;99.90;;;15.74;78.47;101428.00;4119967;28;20027;-65
2021/05/31 06:59:09;;;;;;;10.50;7.05;;;16.10;99.90;;;15.80;77.60;101429.97;4120260;28;20046;-66
2021/05/31 07:01:10;;;;;;;7.43;6.35;;;16.20;99.90;;;15.88;76.93;101432.59;4120166;28;20031;-66
2021/05/31 07:03:11;;;;;;;10.02;6.55;;;16.30;99.90;;;15.91;77.00;101415.47;4119648;28;20030;-66
2021/05/31 07:05:13;;;;;;;8.50;6.53;;;16.40;99.90;;;15.96;76.98;101416.59;4119851;28;20574;-65
2021/05/31 07:07:19;;;;;;;11.63;6.78;;;16.40;99.90;;;16.02;78.04;101421.22;4120180;28;20394;-65
2021/05/31 07:09:20;;;;;;;11.73;6.55;;;16.40;99.90;;;16.14;76.05;101413.66;4118969;28;20037;-66
2021/05/31 07:11:23;;;;;;;8.05;5.75;;;16.50;99.90;;;16.17;75.83;101415.13;4103340;28;20057;-67
2021/05/31 07:13:24;;;;;;;12.25;6.00;;;16.60;99.90;;;16.13;74.39;101408.53;4103477;28;20039;-66
2021/05/31 07:15:25;;;;;;;10.73;5.20;;;16.60;99.90;;;16.19;74.01;101408.63;4116397;28;20081;-66
2021/05/31 07:17:27;;;;;;;7.13;5.07;;;16.70;99.90;;;16.29;74.72;101403.06;4120164;28;20109;-65
2021/05/31 07:19:28;;;;;;;9.68;5.43;;;16.70;99.90;;;16.25;72.69;101402.59;4117868;28;20045;-65
2021/05/31 07:21:29;;;;;;;5.70;4.65;;;16.80;99.90;;;16.38;71.71;101413.50;4118611;28;20081;-65
2021/05/31 07:23:30;;;;;;;7.80;4.30;;;16.90;99.90;;;16.41;70.75;101407.81;4133978;28;20521;-65
2021/05/31 07:25:31;;;;;;;6.60;4.18;;;17.00;99.90;;;16.52;69.16;101407.38;4117729;28;20034;-65
2021/05/31 07:27:33;;;;;;;4.95;4.35;;;17.00;99.90;;;16.35;70.80;101400.53;4119009;28;20031;-65
2021/05/31 07:29:34;;;;;;;7.55;4.72;;;17.10;99.90;;;16.53;71.64;101410.88;4107870;28;20051;-65
2021/05/31 07:31:35;;;;;;;9.45;4.55;;;17.10;99.90;;;16.61;70.72;101412.72;4109677;28;20105;-66
2021/05/31 07:33:36;;;;;;;6.22;4.45;;;17.10;99.90;;;16.68;70.55;101405.63;4107833;28;20094;-66
2021/05/31 07:35:41;;;;;;;5.28;3.92;;;17.20;99.90;;;16.82;69.93;101410.16;4103588;28;20038;-66
2021/05/31 07:37:42;;;;;;;5.35;4.40;;;17.30;99.90;;;16.87;70.49;101408.66;4103055;28;20031;-66
2021/05/31 07:39:43;;;;;;;5.90;4.85;;;17.30;99.90;;;16.88;69.22;101398.78;4105066;28;20062;-68
2021/05/31 07:41:44;;;;;;;8.40;4.38;;;17.50;99.90;;;17.05;69.32;101410.97;4102434;28;20475;-67
2021/05/31 07:43:45;;;;;;;4.85;3.85;;;17.50;99.90;;;17.15;68.38;101406.19;4102933;28;20023;-67
2021/05/31 07:45:47;;;;;;;6.68;4.50;;;17.60;99.90;;;17.21;68.18;101404.63;4105672;28;20031;-66
2021/05/31 07:47:48;;;;;;;4.63;3.97;;;17.70;99.90;;;17.33;68.90;101405.81;4119523;28;20030;-66
2021/05/31 07:49:49;;;;;;;4.68;4.18;;;17.80;99.90;;;17.34;68.85;101412.81;4108635;28;20027;-66
2021/05/31 07:51:52;;;;;;;5.88;4.00;;;17.90;99.90;;;17.46;68.01;101404.19;4119188;28;20034;-66
2021/05/31 07:53:56;;;;;;;5.82;4.05;;;18.00;99.90;;;17.45;67.32;101402.53;4119022;28;20057;-66
2021/05/31 07:55:57;;;;;;;8.02;3.90;;;18.10;99.90;;;17.51;66.76;101401.78;4119111;28;20072;-66
2021/05/31 07:57:58;;;;;;;7.57;4.30;;;18.10;99.90;;;17.69;66.43;101410.25;4119271;28;20027;-66
2021/05/31 07:59:59;;;;;;;4.95;3.67;;;18.20;99.90;;;17.80;66.67;101408.16;4119332;28;20027;-66
2021/05/31 08:02:06;;;;;;;5.82;4.60;;;18.40;99.90;;;17.86;66.67;101397.53;4119157;28;20034;-66
2021/05/31 08:04:07;;;;;;;5.88;3.80;;;18.50;99.90;;;18.04;67.90;101402.47;4118894;28;20114;-67
2021/05/31 08:06:09;;;;;;;5.30;3.67;;;18.50;99.90;;;18.06;64.44;101401.25;4119081;28;20101;-66
2021/05/31 08:08:10;;;;;;;5.97;3.67;;;18.70;99.90;;;18.31;65.89;101403.59;4118924;28;20027;-66
2021/05/31 08:10:12;;;;;;;7.85;3.92;;;18.80;99.90;;;18.44;66.11;101396.50;4109349;28;20038;-67
2021/05/31 08:12:13;;;;;;;5.50;3.28;;;18.90;99.90;;;18.62;65.81;101390.75;4119254;28;20037;-66
2021/05/31 08:14:15;;;;;;;8.15;3.38;;;19.10;99.90;;;18.82;64.05;101397.06;4118977;28;20058;-67
2021/05/31 08:16:18;;;;;;;5.15;3.25;;;19.30;99.90;;;18.75;61.72;101393.53;4118727;28;20487;-66
2021/05/31 08:18:20;;;;;;;3.42;3.10;;;19.40;99.90;;;18.78;60.41;101399.31;4119285;28;20118;-66
2021/05/31 08:20:21;;;;;;;6.05;3.63;;;19.50;99.90;;;18.75;60.74;101402.38;4119232;28;20029;-67
2021/05/31 08:22:23;;;;;;;4.45;3.30;;;19.60;99.90;;;18.99;59.79;101393.09;4119267;28;20498;-66
2021/05/31 08:24:24;;;;;;;5.82;3.28;;;19.60;99.90;;;19.11;59.87;101386.19;4119235;28;20098;-67
2021/05/31 08:26:25;;;;;;;3.40;3.03;;;19.70;99.90;;;19.08;58.72;101396.44;4119087;28;20034;-66
2021/05/31 08:28:26;;;;;;;3.58;2.80;;;19.80;99.80;;;19.39;58.84;101399.53;4114625;28;20110;-66
2021/05/31 08:30:27;;;;;;;4.55;2.90;;;19.90;99.90;;;19.50;58.31;101393.66;4115455;28;20031;-66
2021/05/31 08:32:28;;;;;;;4.03;2.72;;;20.10;99.80;;;19.60;56.39;101391.41;4118727;28;20038;-66
2021/05/31 08:34:29;;;;;;;3.58;2.95;;;20.30;98.60;;;19.67;55.12;101386.94;4119016;28;20030;-66
2021/05/31 08:36:31;;;;;;;3.35;2.65;;;20.40;97.80;;;19.63;55.30;101385.66;4118823;28;20026;-65
2021/05/31 08:38:32;;;;;;;4.20;2.65;;;20.50;97.60;;;19.86;57.52;101380.81;4117271;28;20023;-66
2021/05/31 08:40:33;;;;;;;3.95;2.90;;;20.50;99.00;;;19.93;55.38;101375.47;4118384;28;20035;-65
2021/05/31 08:42:39;;;;;;;5.40;2.28;;;20.60;97.80;;;20.14;54.68;101378.00;4119161;28;20055;-66
2021/05/31 08:44:40;;;;;;;5.05;2.90;;;20.80;97.20;;;20.25;56.03;101379.28;4119355;28;20034;-66
2021/05/31 08:46:41;;;;;;;3.67;2.42;;;21.00;97.70;;;20.36;56.40;101381.38;4119100;28;20106;-66